createdAt,value
2018-12-06T00:00:37.177Z,0.00
2018-12-06T00:01:37.178Z,0.00
2018-12-06T00:02:37.172Z,0.00
2018-12-06T00:03:37.164Z,0.00
2018-12-06T00:04:37.188Z,0.00
2018-12-06T00:05:37.149Z,0.00
2018-12-06T00:06:37.147Z,0.00
2018-12-06T00:07:37.178Z,0.00
2018-12-06T00:08:37.160Z,0.00
2018-12-06T00:09:37.126Z,0.00
2018-12-06T00:10:37.122Z,0.00
2018-12-06T00:11:37.108Z,0.00
2018-12-06T00:12:37.108Z,0.00
2018-12-06T00:13:37.128Z,0.00
2018-12-06T00:14:37.096Z,0.00
2018-12-06T00:15:37.092Z,0.00
2018-12-06T00:16:37.085Z,0.00
2018-12-06T00:17:37.079Z,0.00
2018-12-06T00:18:37.098Z,0.00
2018-12-06T00:19:37.068Z,0.00
2018-12-06T00:20:37.061Z,0.00
2018-12-06T00:21:37.058Z,0.00
2018-12-06T00:22:37.052Z,0.00
2018-12-06T00:23:37.075Z,0.00
2018-12-06T00:24:37.036Z,0.00
2018-12-06T00:25:37.035Z,0.00
2018-12-06T00:26:37.028Z,0.00
2018-12-06T00:27:37.022Z,0.00
2018-12-06T00:28:37.043Z,0.00
2018-12-06T00:29:37.065Z,0.00
2018-12-06T00:30:37.009Z,0.00
2018-12-06T00:31:36.998Z,0.00
2018-12-06T00:32:36.993Z,0.00
2018-12-06T00:33:37.052Z,0.00
2018-12-06T00:34:37.007Z,0.00
2018-12-06T00:35:36.975Z,0.00
2018-12-06T00:36:36.966Z,0.00
2018-12-06T00:37:36.959Z,0.00
2018-12-06T00:38:36.983Z,0.00
2018-12-06T00:39:36.947Z,0.00
2018-12-06T00:40:36.943Z,0.00
2018-12-06T00:41:36.935Z,0.00
2018-12-06T00:42:36.930Z,0.00
2018-12-06T00:43:36.951Z,0.00
2018-12-06T00:44:36.919Z,0.00
2018-12-06T00:45:36.910Z,0.00
2018-12-06T00:46:36.908Z,0.00
2018-12-06T00:47:36.899Z,0.00
2018-12-06T00:48:36.923Z,0.00
2018-12-06T00:49:36.886Z,0.00
2018-12-06T00:50:36.888Z,0.00
2018-12-06T00:51:36.879Z,0.00
2018-12-06T00:52:36.871Z,0.00
2018-12-06T00:53:36.890Z,0.00
2018-12-06T00:54:36.863Z,0.00
2018-12-06T00:55:36.856Z,0.00
2018-12-06T00:56:36.849Z,0.00
2018-12-06T00:57:36.834Z,0.00
2018-12-06T00:58:36.863Z,0.00
2018-12-06T00:59:36.832Z,0.00
2018-12-06T01:00:36.823Z,0.00
2018-12-06T01:01:36.818Z,0.00
2018-12-06T01:02:36.811Z,0.00
2018-12-06T01:03:36.830Z,0.00
2018-12-06T01:04:36.798Z,0.00
2018-12-06T01:05:36.796Z,0.00
2018-12-06T01:06:36.786Z,0.00
2018-12-06T01:07:36.781Z,0.00
2018-12-06T01:08:36.802Z,0.00
2018-12-06T01:09:36.773Z,0.00
2018-12-06T01:10:36.761Z,0.00
2018-12-06T01:11:36.757Z,0.00
2018-12-06T01:12:36.750Z,0.00
2018-12-06T01:13:36.773Z,0.00
2018-12-06T01:14:36.739Z,0.00
2018-12-06T01:15:36.749Z,0.00
2018-12-06T01:16:36.729Z,0.00
2018-12-06T01:17:36.726Z,0.00
2018-12-06T01:18:36.744Z,0.00
2018-12-06T01:19:36.710Z,0.00
2018-12-06T01:20:36.705Z,0.00
2018-12-06T01:21:36.697Z,0.00
2018-12-06T01:22:36.696Z,0.00
2018-12-06T01:23:36.717Z,0.00
2018-12-06T01:24:36.681Z,0.00
2018-12-06T01:25:36.677Z,0.00
2018-12-06T01:26:36.672Z,0.00
2018-12-06T01:27:36.664Z,0.00
2018-12-06T01:28:36.690Z,0.00
2018-12-06T01:29:36.652Z,0.00
2018-12-06T01:30:36.647Z,0.00
2018-12-06T01:31:36.641Z,0.00
2018-12-06T01:32:36.665Z,0.00
2018-12-06T01:33:36.632Z,0.00
2018-12-06T01:34:36.624Z,0.00
2018-12-06T01:35:36.644Z,0.00
2018-12-06T01:36:36.611Z,0.00
2018-12-06T01:37:36.605Z,0.00
2018-12-06T01:38:36.630Z,0.00
2018-12-06T01:39:36.592Z,0.00
2018-12-06T01:40:36.591Z,0.00
2018-12-06T01:41:36.588Z,0.00
2018-12-06T01:42:36.607Z,0.00
2018-12-06T01:43:36.569Z,0.00
2018-12-06T01:44:36.567Z,0.00
2018-12-06T01:45:36.591Z,0.00
2018-12-06T01:46:36.558Z,0.00
2018-12-06T01:47:36.551Z,0.00
2018-12-06T01:48:36.568Z,0.00
2018-12-06T01:49:57.545Z,0.00
2018-12-06T01:50:36.535Z,0.00
2018-12-06T01:51:36.526Z,0.00
2018-12-06T01:52:36.551Z,0.00
2018-12-06T01:53:36.514Z,0.00
2018-12-06T01:54:36.510Z,0.00
2018-12-06T01:55:36.535Z,0.00
2018-12-06T01:56:36.497Z,0.00
2018-12-06T01:57:36.496Z,0.00
2018-12-06T01:58:36.514Z,0.00
2018-12-06T01:59:36.482Z,0.00
2018-12-06T02:00:36.477Z,0.00
2018-12-06T02:01:36.470Z,0.00
2018-12-06T02:02:36.466Z,0.00
2018-12-06T02:03:36.488Z,0.00
2018-12-06T02:04:36.463Z,0.00
2018-12-06T02:05:36.446Z,0.00
2018-12-06T02:06:36.450Z,0.00
2018-12-06T02:07:36.586Z,0.00
2018-12-06T02:08:36.461Z,0.00
2018-12-06T02:09:36.435Z,0.00
2018-12-06T02:10:36.423Z,0.00
2018-12-06T02:11:36.416Z,0.00
2018-12-06T02:12:36.419Z,0.00
2018-12-06T02:13:36.433Z,0.00
2018-12-06T02:14:36.406Z,0.00
2018-12-06T02:15:36.420Z,0.00
2018-12-06T02:16:36.388Z,0.00
2018-12-06T02:17:36.385Z,0.00
2018-12-06T02:18:36.381Z,0.00
2018-12-06T02:19:36.396Z,0.00
2018-12-06T02:20:36.369Z,0.00
2018-12-06T02:21:36.364Z,0.00
2018-12-06T02:22:36.362Z,0.00
2018-12-06T02:23:36.348Z,0.00
2018-12-06T02:24:36.373Z,0.00
2018-12-06T02:25:36.338Z,0.00
2018-12-06T02:26:36.334Z,0.00
2018-12-06T02:27:36.328Z,0.00
2018-12-06T02:28:36.320Z,0.00
2018-12-06T02:29:36.348Z,0.00
2018-12-06T02:30:36.312Z,0.00
2018-12-06T02:31:36.300Z,0.00
2018-12-06T02:32:36.300Z,0.00
2018-12-06T02:33:36.305Z,0.00
2018-12-06T02:34:36.320Z,0.00
2018-12-06T02:35:36.360Z,0.00
2018-12-06T02:36:36.281Z,0.00
2018-12-06T02:37:36.271Z,0.00
2018-12-06T02:38:36.268Z,0.00
2018-12-06T02:39:36.288Z,0.00
2018-12-06T02:40:36.255Z,0.00
2018-12-06T02:41:36.249Z,0.00
2018-12-06T02:42:36.243Z,0.00
2018-12-06T02:43:36.240Z,0.00
2018-12-06T02:44:36.263Z,0.00
2018-12-06T02:45:36.230Z,0.00
2018-12-06T02:46:36.219Z,0.00
2018-12-06T02:47:36.218Z,0.00
2018-12-06T02:48:36.211Z,0.00
2018-12-06T02:49:36.236Z,0.00
2018-12-06T02:50:36.198Z,0.00
2018-12-06T02:51:36.195Z,0.00
2018-12-06T02:52:36.190Z,0.00
2018-12-06T02:53:36.183Z,0.00
2018-12-06T02:54:36.203Z,0.00
2018-12-06T02:55:36.171Z,0.00
2018-12-06T02:56:36.168Z,0.00
2018-12-06T02:57:36.166Z,0.00
2018-12-06T02:58:36.158Z,0.00
2018-12-06T02:59:36.175Z,0.00
2018-12-06T03:00:36.148Z,0.00
2018-12-06T03:01:36.136Z,0.00
2018-12-06T03:02:36.141Z,0.00
2018-12-06T03:03:36.130Z,0.00
2018-12-06T03:04:36.150Z,0.00
2018-12-06T03:05:36.118Z,0.00
2018-12-06T03:06:36.114Z,0.00
2018-12-06T03:07:36.111Z,0.00
2018-12-06T03:08:36.102Z,0.00
2018-12-06T03:09:36.131Z,0.00
2018-12-06T03:10:36.090Z,0.00
2018-12-06T03:11:36.091Z,0.00
2018-12-06T03:12:36.081Z,0.00
2018-12-06T03:13:36.073Z,0.00
2018-12-06T03:14:36.098Z,0.00
2018-12-06T03:15:36.067Z,0.00
2018-12-06T03:16:36.062Z,0.00
2018-12-06T03:17:36.058Z,0.00
2018-12-06T03:18:36.050Z,0.00
2018-12-06T03:19:36.070Z,0.00
2018-12-06T03:20:36.038Z,0.00
2018-12-06T03:21:36.030Z,0.00
2018-12-06T03:22:36.029Z,0.00
2018-12-06T03:23:36.030Z,0.00
2018-12-06T03:24:36.049Z,0.00
2018-12-06T03:25:36.011Z,0.00
2018-12-06T03:26:36.007Z,0.00
2018-12-06T03:27:36.005Z,0.00
2018-12-06T03:28:36.001Z,0.00
2018-12-06T03:29:36.095Z,0.00
2018-12-06T03:30:35.989Z,0.00
2018-12-06T03:31:35.983Z,0.00
2018-12-06T03:32:35.987Z,0.00
2018-12-06T03:33:35.978Z,0.00
2018-12-06T03:34:35.993Z,0.00
2018-12-06T03:35:35.957Z,0.00
2018-12-06T03:36:35.957Z,0.00
2018-12-06T03:37:35.951Z,0.00
2018-12-06T03:38:35.940Z,0.00
2018-12-06T03:39:35.969Z,0.00
2018-12-06T03:40:35.934Z,0.00
2018-12-06T03:41:35.924Z,0.00
2018-12-06T03:42:35.924Z,0.00
2018-12-06T03:43:35.912Z,0.00
2018-12-06T03:44:35.936Z,0.00
2018-12-06T03:45:35.906Z,0.00
2018-12-06T03:46:35.896Z,0.00
2018-12-06T03:47:35.901Z,0.00
2018-12-06T03:48:35.920Z,0.00
2018-12-06T03:49:35.884Z,0.00
2018-12-06T03:50:35.879Z,0.00
2018-12-06T03:51:35.900Z,0.00
2018-12-06T03:52:35.869Z,0.00
2018-12-06T03:53:35.873Z,0.00
2018-12-06T03:54:35.891Z,0.00
2018-12-06T03:55:35.859Z,0.00
2018-12-06T03:56:35.850Z,0.00
2018-12-06T03:57:35.839Z,0.00
2018-12-06T03:58:35.833Z,0.00
2018-12-06T03:59:35.858Z,0.00
2018-12-06T04:00:35.823Z,0.00
2018-12-06T04:01:35.820Z,0.00
2018-12-06T04:02:35.818Z,0.00
2018-12-06T04:03:35.815Z,0.00
2018-12-06T04:04:35.831Z,0.00
2018-12-06T04:05:35.795Z,0.00
2018-12-06T04:06:35.791Z,0.00
2018-12-06T04:07:35.787Z,0.00
2018-12-06T04:08:35.780Z,0.00
2018-12-06T04:09:35.813Z,0.00
2018-12-06T04:10:35.768Z,0.00
2018-12-06T04:11:35.761Z,0.00
2018-12-06T04:12:35.759Z,0.00
2018-12-06T04:13:35.749Z,0.00
2018-12-06T04:14:35.777Z,0.00
2018-12-06T04:15:35.743Z,0.00
2018-12-06T04:16:35.768Z,0.00
2018-12-06T04:17:35.731Z,0.00
2018-12-06T04:18:35.727Z,0.00
2018-12-06T04:19:35.720Z,0.00
2018-12-06T04:20:35.743Z,0.00
2018-12-06T04:21:35.709Z,0.00
2018-12-06T04:22:35.707Z,0.00
2018-12-06T04:23:35.699Z,0.00
2018-12-06T04:24:35.693Z,0.00
2018-12-06T04:25:35.718Z,0.00
2018-12-06T04:26:35.697Z,0.00
2018-12-06T04:27:35.679Z,0.00
2018-12-06T04:28:35.672Z,0.00
2018-12-06T04:29:35.663Z,0.00
2018-12-06T04:30:35.689Z,0.00
2018-12-06T04:31:35.655Z,0.00
2018-12-06T04:32:35.648Z,0.00
2018-12-06T04:33:35.641Z,0.00
2018-12-06T04:34:35.632Z,0.00
2018-12-06T04:35:35.657Z,0.00
2018-12-06T04:36:35.626Z,0.00
2018-12-06T04:37:35.627Z,0.00
2018-12-06T04:38:35.614Z,0.00
2018-12-06T04:39:35.612Z,0.00
2018-12-06T04:40:35.651Z,0.00
2018-12-06T04:41:35.598Z,0.00
2018-12-06T04:42:35.597Z,0.00
2018-12-06T04:43:35.591Z,0.00
2018-12-06T04:44:35.583Z,0.00
2018-12-06T04:45:35.606Z,0.00
2018-12-06T04:46:35.570Z,0.00
2018-12-06T04:47:35.567Z,0.00
2018-12-06T04:48:35.558Z,0.00
2018-12-06T04:49:35.554Z,0.00
2018-12-06T04:50:35.591Z,0.00
2018-12-06T04:51:35.571Z,0.00
2018-12-06T04:52:35.539Z,0.00
2018-12-06T04:53:35.536Z,0.00
2018-12-06T04:54:35.525Z,0.00
2018-12-06T04:55:35.651Z,0.00
2018-12-06T04:56:35.542Z,0.00
2018-12-06T04:57:35.512Z,0.00
2018-12-06T04:58:35.518Z,0.00
2018-12-06T04:59:35.501Z,0.00
2018-12-06T05:00:35.501Z,0.00
2018-12-06T05:01:35.513Z,0.00
2018-12-06T05:02:35.478Z,0.00
2018-12-06T05:03:35.482Z,0.00
2018-12-06T05:04:35.473Z,0.00
2018-12-06T05:05:35.465Z,0.00
2018-12-06T05:06:35.490Z,0.00
2018-12-06T05:07:35.509Z,0.00
2018-12-06T05:08:35.455Z,0.00
2018-12-06T05:09:35.445Z,0.00
2018-12-06T05:10:35.441Z,0.00
2018-12-06T05:11:35.469Z,0.00
2018-12-06T05:12:35.429Z,0.00
2018-12-06T05:13:35.427Z,0.00
2018-12-06T05:14:35.421Z,0.00
2018-12-06T05:15:35.416Z,0.00
2018-12-06T05:16:35.434Z,0.00
2018-12-06T05:17:35.405Z,0.00
2018-12-06T05:18:35.402Z,0.00
2018-12-06T05:19:35.395Z,0.00
2018-12-06T05:20:35.389Z,0.00
2018-12-06T05:21:35.412Z,0.00
2018-12-06T05:22:35.376Z,0.00
2018-12-06T05:23:35.372Z,0.00
2018-12-06T05:24:35.369Z,0.00
2018-12-06T05:25:35.359Z,0.00
2018-12-06T05:26:35.384Z,0.00
2018-12-06T05:27:35.352Z,0.00
2018-12-06T05:28:35.350Z,0.00
2018-12-06T05:29:35.337Z,0.00
2018-12-06T05:30:35.338Z,0.00
2018-12-06T05:31:35.360Z,0.00
2018-12-06T05:32:35.357Z,0.00
2018-12-06T05:33:35.322Z,0.00
2018-12-06T05:34:35.315Z,0.00
2018-12-06T05:35:35.311Z,0.00
2018-12-06T05:36:35.304Z,0.00
2018-12-06T05:37:35.332Z,0.00
2018-12-06T05:38:35.296Z,0.00
2018-12-06T05:39:35.297Z,0.00
2018-12-06T05:40:35.283Z,0.00
2018-12-06T05:41:35.280Z,0.00
2018-12-06T05:42:35.304Z,0.00
2018-12-06T05:43:35.259Z,0.00
2018-12-06T05:44:35.345Z,0.00
2018-12-06T05:45:37.742Z,0.00
2018-12-06T05:46:35.467Z,0.00
2018-12-06T05:47:35.464Z,0.00
2018-12-06T05:48:35.323Z,0.00
2018-12-06T05:49:36.219Z,0.00
2018-12-06T05:50:35.439Z,0.00
2018-12-06T05:51:35.494Z,0.00
2018-12-06T05:52:35.344Z,0.00
2018-12-06T05:53:35.215Z,0.00
2018-12-06T05:54:35.213Z,0.00
2018-12-06T05:55:35.207Z,0.00
2018-12-06T05:56:35.201Z,0.00
2018-12-06T05:57:35.221Z,0.00
2018-12-06T05:58:35.187Z,0.00
2018-12-06T05:59:35.182Z,0.00
2018-12-06T06:00:36.082Z,0.00
2018-12-06T06:01:35.169Z,0.00
2018-12-06T06:02:35.194Z,0.00
2018-12-06T06:03:35.162Z,0.00
2018-12-06T06:04:35.154Z,0.00
2018-12-06T06:05:35.150Z,0.00
2018-12-06T06:06:35.146Z,0.00
2018-12-06T06:07:35.174Z,0.00
2018-12-06T06:08:35.133Z,0.00
2018-12-06T06:09:35.127Z,0.00
2018-12-06T06:10:35.121Z,0.00
2018-12-06T06:11:35.118Z,0.00
2018-12-06T06:12:35.138Z,0.00
2018-12-06T06:13:35.102Z,0.00
2018-12-06T06:14:35.106Z,0.00
2018-12-06T06:15:35.097Z,0.00
2018-12-06T06:16:35.092Z,0.00
2018-12-06T06:17:35.119Z,0.00
2018-12-06T06:18:35.107Z,0.00
2018-12-06T06:19:35.079Z,0.00
2018-12-06T06:20:35.073Z,0.00
2018-12-06T06:21:35.067Z,0.00
2018-12-06T06:22:35.053Z,0.00
2018-12-06T06:23:35.082Z,0.00
2018-12-06T06:24:35.048Z,0.00
2018-12-06T06:25:35.041Z,0.00
2018-12-06T06:26:35.037Z,0.00
2018-12-06T06:27:35.034Z,0.00
2018-12-06T06:28:35.055Z,0.00
2018-12-06T06:29:35.023Z,0.00
2018-12-06T06:30:35.028Z,0.00
2018-12-06T06:31:35.012Z,0.00
2018-12-06T06:32:35.795Z,0.00
2018-12-06T06:33:35.026Z,0.00
2018-12-06T06:34:34.996Z,0.00
2018-12-06T06:35:34.990Z,0.00
2018-12-06T06:36:34.988Z,0.00
2018-12-06T06:37:34.980Z,0.00
2018-12-06T06:38:35.004Z,0.00
2018-12-06T06:39:34.973Z,0.00
2018-12-06T06:40:34.965Z,0.00
2018-12-06T06:41:34.960Z,0.00
2018-12-06T06:42:34.952Z,0.00
2018-12-06T06:43:34.982Z,0.00
2018-12-06T06:44:34.941Z,0.00
2018-12-06T06:45:34.939Z,0.00
2018-12-06T06:46:34.935Z,0.00
2018-12-06T06:47:34.930Z,0.00
2018-12-06T06:48:36.069Z,0.00
2018-12-06T06:49:34.919Z,0.00
2018-12-06T06:50:35.702Z,0.00
2018-12-06T06:51:34.908Z,0.00
2018-12-06T06:52:35.008Z,0.00
2018-12-06T06:53:34.979Z,5.63
2018-12-06T06:54:34.917Z,5.63
2018-12-06T06:55:34.952Z,5.63
2018-12-06T06:56:35.587Z,5.63
2018-12-06T06:57:34.880Z,5.63
2018-12-06T06:58:34.872Z,5.63
2018-12-06T06:59:34.903Z,5.63
2018-12-06T07:00:35.101Z,5.63
2018-12-06T07:01:35.056Z,5.63
2018-12-06T07:02:35.677Z,5.63
2018-12-06T07:03:34.847Z,5.63
2018-12-06T07:04:34.872Z,5.63
2018-12-06T07:05:36.724Z,11.25
2018-12-06T07:06:34.835Z,11.25
2018-12-06T07:07:34.923Z,11.25
2018-12-06T07:08:34.824Z,11.25
2018-12-06T07:09:34.844Z,16.88
2018-12-06T07:10:34.811Z,16.88
2018-12-06T07:11:34.812Z,16.88
2018-12-06T07:12:34.803Z,16.88
2018-12-06T07:13:34.799Z,22.50
2018-12-06T07:14:34.823Z,22.50
2018-12-06T07:15:34.787Z,28.13
2018-12-06T07:16:34.784Z,33.75
2018-12-06T07:17:34.780Z,39.38
2018-12-06T07:18:34.774Z,45.00
2018-12-06T07:19:34.889Z,50.63
2018-12-06T07:20:34.763Z,50.63
2018-12-06T07:21:34.760Z,50.63
2018-12-06T07:22:34.755Z,50.63
2018-12-06T07:23:34.750Z,50.63
2018-12-06T07:24:34.775Z,50.63
2018-12-06T07:25:34.740Z,50.63
2018-12-06T07:26:34.816Z,50.63
2018-12-06T07:27:34.755Z,50.63
2018-12-06T07:28:34.751Z,50.63
2018-12-06T07:29:34.715Z,56.25
2018-12-06T07:30:34.743Z,61.88
2018-12-06T07:31:34.713Z,61.88
2018-12-06T07:32:34.707Z,56.25
2018-12-06T07:33:34.697Z,56.25
2018-12-06T07:34:34.694Z,56.25
2018-12-06T07:35:34.718Z,61.88
2018-12-06T07:36:34.684Z,67.50
2018-12-06T07:37:34.675Z,73.13
2018-12-06T07:38:34.671Z,73.13
2018-12-06T07:39:34.672Z,78.75
2018-12-06T07:40:34.695Z,78.75
2018-12-06T07:41:34.661Z,78.75
2018-12-06T07:42:34.653Z,84.38
2018-12-06T07:43:34.652Z,90.00
2018-12-06T07:44:34.645Z,95.63
2018-12-06T07:45:34.669Z,101.25
2018-12-06T07:46:34.643Z,106.88
2018-12-06T07:47:34.626Z,112.50
2018-12-06T07:48:34.630Z,118.13
2018-12-06T07:49:34.621Z,123.75
2018-12-06T07:50:34.642Z,129.38
2018-12-06T07:51:34.614Z,140.63
2018-12-06T07:52:34.604Z,146.25
2018-12-06T07:53:34.601Z,151.88
2018-12-06T07:54:34.597Z,157.50
2018-12-06T07:55:34.621Z,163.13
2018-12-06T07:56:34.588Z,174.38
2018-12-06T07:57:34.586Z,180.00
2018-12-06T07:58:34.580Z,191.25
2018-12-06T07:59:34.576Z,196.88
2018-12-06T08:00:34.598Z,202.50
2018-12-06T08:01:34.561Z,208.13
2018-12-06T08:02:34.562Z,213.75
2018-12-06T08:03:34.559Z,219.38
2018-12-06T08:04:34.553Z,219.38
2018-12-06T08:05:34.577Z,219.38
2018-12-06T08:06:34.588Z,219.38
2018-12-06T08:07:34.626Z,225.00
2018-12-06T08:08:34.532Z,225.00
2018-12-06T08:09:34.530Z,225.00
2018-12-06T08:10:34.558Z,236.25
2018-12-06T08:11:34.522Z,258.75
2018-12-06T08:12:34.519Z,275.63
2018-12-06T08:13:34.509Z,281.25
2018-12-06T08:14:34.512Z,292.50
2018-12-06T08:15:34.531Z,298.13
2018-12-06T08:16:34.501Z,303.75
2018-12-06T08:17:34.504Z,309.38
2018-12-06T08:18:34.581Z,320.63
2018-12-06T08:19:34.490Z,320.63
2018-12-06T08:20:34.517Z,298.13
2018-12-06T08:21:34.481Z,292.50
2018-12-06T08:22:34.476Z,315.00
2018-12-06T08:23:34.468Z,337.50
2018-12-06T08:24:34.464Z,405.00
2018-12-06T08:25:34.494Z,421.88
2018-12-06T08:26:34.459Z,421.88
2018-12-06T08:27:34.460Z,393.75
2018-12-06T08:28:34.455Z,360.00
2018-12-06T08:29:34.452Z,343.13
2018-12-06T08:30:34.485Z,320.63
2018-12-06T08:31:34.444Z,281.25
2018-12-06T08:32:34.447Z,315.00
2018-12-06T08:33:34.443Z,298.13
2018-12-06T08:34:34.436Z,258.75
2018-12-06T08:35:34.467Z,264.38
2018-12-06T08:36:34.426Z,331.88
2018-12-06T08:37:34.431Z,326.25
2018-12-06T08:38:34.427Z,326.25
2018-12-06T08:39:34.427Z,275.63
2018-12-06T08:40:34.449Z,337.50
2018-12-06T08:41:34.419Z,258.75
2018-12-06T08:42:34.419Z,253.13
2018-12-06T08:43:34.415Z,258.75
2018-12-06T08:44:34.410Z,270.00
2018-12-06T08:45:34.440Z,461.25
2018-12-06T08:46:34.415Z,455.63
2018-12-06T08:47:34.602Z,444.38
2018-12-06T08:48:34.400Z,556.88
2018-12-06T08:49:34.402Z,466.88
2018-12-06T08:50:34.428Z,348.75
2018-12-06T08:51:34.391Z,590.63
2018-12-06T08:52:34.394Z,618.75
2018-12-06T08:53:34.390Z,641.25
2018-12-06T08:54:34.396Z,675.00
2018-12-06T08:55:34.415Z,759.38
2018-12-06T08:56:34.395Z,832.50
2018-12-06T08:57:34.390Z,888.75
2018-12-06T08:58:34.386Z,849.38
2018-12-06T08:59:34.391Z,770.63
2018-12-06T09:00:34.419Z,624.38
2018-12-06T09:01:34.390Z,551.25
2018-12-06T09:02:34.393Z,523.13
2018-12-06T09:03:34.391Z,506.25
2018-12-06T09:04:34.396Z,450.00
2018-12-06T09:05:34.427Z,382.50
2018-12-06T09:06:34.394Z,315.00
2018-12-06T09:07:34.395Z,275.63
2018-12-06T09:08:34.395Z,236.25
2018-12-06T09:09:34.396Z,230.63
2018-12-06T09:10:34.428Z,219.38
2018-12-06T09:11:34.393Z,213.75
2018-12-06T09:12:34.394Z,191.25
2018-12-06T09:13:34.467Z,157.50
2018-12-06T09:14:34.391Z,129.38
2018-12-06T09:15:34.420Z,123.75
2018-12-06T09:16:34.402Z,135.00
2018-12-06T09:17:34.386Z,146.25
2018-12-06T09:18:34.382Z,146.25
2018-12-06T09:19:34.381Z,151.88
2018-12-06T09:20:34.409Z,168.75
2018-12-06T09:21:34.382Z,208.13
2018-12-06T09:22:34.373Z,253.13
2018-12-06T09:23:34.374Z,309.38
2018-12-06T09:24:34.371Z,360.00
2018-12-06T09:25:34.442Z,382.50
2018-12-06T09:26:34.366Z,393.75
2018-12-06T09:27:34.361Z,405.00
2018-12-06T09:28:34.361Z,410.63
2018-12-06T09:29:34.357Z,427.50
2018-12-06T09:30:34.386Z,433.13
2018-12-06T09:31:34.359Z,438.75
2018-12-06T09:32:34.345Z,444.38
2018-12-06T09:33:34.346Z,466.88
2018-12-06T09:34:34.345Z,472.50
2018-12-06T09:35:34.369Z,444.38
2018-12-06T09:36:34.337Z,433.13
2018-12-06T09:37:34.333Z,427.50
2018-12-06T09:38:34.337Z,382.50
2018-12-06T09:39:34.330Z,337.50
2018-12-06T09:40:34.353Z,343.13
2018-12-06T09:41:34.324Z,376.88
2018-12-06T09:42:34.741Z,427.50
2018-12-06T09:43:34.316Z,483.75
2018-12-06T09:44:34.315Z,500.63
2018-12-06T09:45:34.343Z,500.63
2018-12-06T09:46:34.311Z,489.38
2018-12-06T09:47:34.312Z,483.75
2018-12-06T09:48:34.315Z,427.50
2018-12-06T09:49:34.304Z,376.88
2018-12-06T09:50:34.329Z,337.50
2018-12-06T09:51:34.292Z,343.13
2018-12-06T09:52:34.289Z,421.88
2018-12-06T09:53:34.288Z,500.63
2018-12-06T09:54:34.335Z,483.75
2018-12-06T09:55:34.309Z,596.25
2018-12-06T09:56:34.276Z,691.88
2018-12-06T09:57:34.279Z,804.38
2018-12-06T09:58:34.273Z,922.50
2018-12-06T09:59:34.296Z,1580.63
2018-12-06T10:00:34.269Z,1608.75
2018-12-06T10:01:34.297Z,1845.00
2018-12-06T10:02:34.271Z,1839.38
2018-12-06T10:03:34.290Z,1811.25
2018-12-06T10:04:34.265Z,1738.13
2018-12-06T10:05:34.288Z,1586.25
2018-12-06T10:06:34.264Z,1715.63
2018-12-06T10:07:34.591Z,1164.38
2018-12-06T10:08:34.267Z,1181.25
2018-12-06T10:09:34.270Z,1473.75
2018-12-06T10:10:34.273Z,1006.88
2018-12-06T10:11:34.414Z,720.00
2018-12-06T10:12:34.292Z,866.25
2018-12-06T10:13:34.276Z,950.63
2018-12-06T10:14:34.288Z,838.13
2018-12-06T10:15:34.315Z,871.88
2018-12-06T10:16:34.325Z,1068.75
2018-12-06T10:17:34.484Z,1096.88
2018-12-06T10:18:34.297Z,888.75
2018-12-06T10:19:34.434Z,781.88
2018-12-06T10:20:34.332Z,776.25
2018-12-06T10:21:34.327Z,770.63
2018-12-06T10:22:34.391Z,742.50
2018-12-06T10:23:34.312Z,697.50
2018-12-06T10:24:34.374Z,630.00
2018-12-06T10:25:34.308Z,562.50
2018-12-06T10:26:34.793Z,534.38
2018-12-06T10:27:34.313Z,562.50
2018-12-06T10:28:34.317Z,596.25
2018-12-06T10:29:34.315Z,607.50
2018-12-06T10:30:34.342Z,590.63
2018-12-06T10:31:34.313Z,607.50
2018-12-06T10:32:34.315Z,556.88
2018-12-06T10:33:34.315Z,506.25
2018-12-06T10:34:34.313Z,466.88
2018-12-06T10:35:34.344Z,455.63
2018-12-06T10:36:34.315Z,455.63
2018-12-06T10:37:34.312Z,455.63
2018-12-06T10:38:34.309Z,444.38
2018-12-06T10:39:34.310Z,421.88
2018-12-06T10:40:34.344Z,405.00
2018-12-06T10:41:34.305Z,371.25
2018-12-06T10:42:34.297Z,343.13
2018-12-06T10:43:34.305Z,326.25
2018-12-06T10:44:34.498Z,303.75
2018-12-06T10:45:34.324Z,309.38
2018-12-06T10:46:34.296Z,303.75
2018-12-06T10:47:34.294Z,320.63
2018-12-06T10:48:34.332Z,331.88
2018-12-06T10:49:34.296Z,354.38
2018-12-06T10:50:34.349Z,371.25
2018-12-06T10:51:34.416Z,388.13
2018-12-06T10:52:34.293Z,393.75
2018-12-06T10:53:34.285Z,393.75
2018-12-06T10:54:34.295Z,382.50
2018-12-06T10:55:34.380Z,376.88
2018-12-06T10:56:34.276Z,371.25
2018-12-06T10:57:34.272Z,371.25
2018-12-06T10:58:34.284Z,376.88
2018-12-06T10:59:34.268Z,376.88
2018-12-06T11:00:34.297Z,393.75
2018-12-06T11:01:34.266Z,421.88
2018-12-06T11:02:34.261Z,405.00
2018-12-06T11:03:35.158Z,388.13
2018-12-06T11:04:34.281Z,393.75
2018-12-06T11:05:34.556Z,444.38
2018-12-06T11:06:34.252Z,483.75
2018-12-06T11:07:34.292Z,540.00
2018-12-06T11:08:34.274Z,573.75
2018-12-06T11:09:34.243Z,585.00
2018-12-06T11:10:35.097Z,596.25
2018-12-06T11:11:34.235Z,590.63
2018-12-06T11:12:34.233Z,585.00
2018-12-06T11:13:34.229Z,613.13
2018-12-06T11:14:34.229Z,613.13
2018-12-06T11:15:34.252Z,613.13
2018-12-06T11:16:34.223Z,613.13
2018-12-06T11:17:35.513Z,607.50
2018-12-06T11:18:34.221Z,613.13
2018-12-06T11:19:34.215Z,618.75
2018-12-06T11:20:34.241Z,607.50
2018-12-06T11:21:34.211Z,590.63
2018-12-06T11:22:34.209Z,573.75
2018-12-06T11:23:34.200Z,556.88
2018-12-06T11:24:34.201Z,540.00
2018-12-06T11:25:34.221Z,534.38
2018-12-06T11:26:34.193Z,545.63
2018-12-06T11:27:34.192Z,551.25
2018-12-06T11:28:34.188Z,562.50
2018-12-06T11:29:34.185Z,562.50
2018-12-06T11:30:34.212Z,585.00
2018-12-06T11:31:34.181Z,585.00
2018-12-06T11:32:34.178Z,585.00
2018-12-06T11:33:34.172Z,573.75
2018-12-06T11:34:34.175Z,545.63
2018-12-06T11:35:34.200Z,523.13
2018-12-06T11:36:34.169Z,511.88
2018-12-06T11:37:34.169Z,500.63
2018-12-06T11:38:34.162Z,489.38
2018-12-06T11:39:34.188Z,472.50
2018-12-06T11:40:34.163Z,461.25
2018-12-06T11:41:34.180Z,461.25
2018-12-06T11:42:34.154Z,461.25
2018-12-06T11:43:34.150Z,478.13
2018-12-06T11:44:34.147Z,500.63
2018-12-06T11:45:34.173Z,511.88
2018-12-06T11:46:34.141Z,511.88
2018-12-06T11:47:34.133Z,511.88
2018-12-06T11:48:34.137Z,517.50
2018-12-06T11:49:34.135Z,534.38
2018-12-06T11:50:34.162Z,545.63
2018-12-06T11:51:34.132Z,556.88
2018-12-06T11:52:34.125Z,556.88
2018-12-06T11:53:34.121Z,534.38
2018-12-06T11:54:34.155Z,511.88
2018-12-06T11:55:34.272Z,495.00
2018-12-06T11:56:34.114Z,472.50
2018-12-06T11:57:34.116Z,461.25
2018-12-06T11:58:34.106Z,461.25
2018-12-06T11:59:34.118Z,472.50
2018-12-06T12:00:34.136Z,495.00
2018-12-06T12:01:34.100Z,506.25
2018-12-06T12:02:34.101Z,511.88
2018-12-06T12:03:34.130Z,517.50
2018-12-06T12:04:34.092Z,528.75
2018-12-06T12:05:34.091Z,551.25
2018-12-06T12:06:34.117Z,590.63
2018-12-06T12:07:34.083Z,618.75
2018-12-06T12:08:34.085Z,641.25
2018-12-06T12:09:34.081Z,652.50
2018-12-06T12:10:34.081Z,669.38
2018-12-06T12:11:34.109Z,669.38
2018-12-06T12:12:34.073Z,646.88
2018-12-06T12:13:34.069Z,624.38
2018-12-06T12:14:34.069Z,596.25
2018-12-06T12:15:34.064Z,573.75
2018-12-06T12:16:34.090Z,568.13
2018-12-06T12:17:34.062Z,562.50
2018-12-06T12:18:34.056Z,562.50
2018-12-06T12:19:34.055Z,568.13
2018-12-06T12:20:34.053Z,562.50
2018-12-06T12:21:34.080Z,562.50
2018-12-06T12:22:34.049Z,551.25
2018-12-06T12:23:34.049Z,540.00
2018-12-06T12:24:34.078Z,540.00
2018-12-06T12:25:34.037Z,540.00
2018-12-06T12:26:34.042Z,545.63
2018-12-06T12:27:34.065Z,556.88
2018-12-06T12:28:34.037Z,579.38
2018-12-06T12:29:34.032Z,585.00
2018-12-06T12:30:34.026Z,573.75
2018-12-06T12:31:34.056Z,573.75
2018-12-06T12:32:34.025Z,556.88
2018-12-06T12:33:34.024Z,545.63
2018-12-06T12:34:34.021Z,540.00
2018-12-06T12:35:34.021Z,540.00
2018-12-06T12:36:34.038Z,545.63
2018-12-06T12:37:34.016Z,579.38
2018-12-06T12:38:34.017Z,585.00
2018-12-06T12:39:34.009Z,590.63
2018-12-06T12:40:34.010Z,596.25
2018-12-06T12:41:34.033Z,596.25
2018-12-06T12:42:34.002Z,607.50
2018-12-06T12:43:34.004Z,556.88
2018-12-06T12:44:34.000Z,528.75
2018-12-06T12:45:33.993Z,517.50
2018-12-06T12:46:34.025Z,540.00
2018-12-06T12:47:34.028Z,534.38
2018-12-06T12:48:33.992Z,523.13
2018-12-06T12:49:33.993Z,506.25
2018-12-06T12:50:33.996Z,528.75
2018-12-06T12:51:33.981Z,495.00
2018-12-06T12:52:34.011Z,528.75
2018-12-06T12:53:33.978Z,517.50
2018-12-06T12:54:33.984Z,500.63
2018-12-06T12:55:33.976Z,478.13